LTBQ

Details ICAO LTBQ
Name TOPEL
Region Turkey
Timezone Europe/Istanbul (UTC+3.0)
Plans Departing 9
Arriving 12
Stats Elevation 182 ft / 55 m (AMSL)
Location 40.735032° 30.083263°
Runways 1
Magnetic Variation 5.534° E
Sunrise 2017-12-13 05:16:34 UTC / 2017-12-13 08:16:34 Local
Sunset 2017-12-13 14:33:56 UTC / 2017-12-13 17:33:56 Local
Advertisement - Login to hide

Runways

ID Width Length Bearing (true) Bearing (mag) Surface Threshold Offset Overrun Length
09 98 ft / 30 m 9,780 ft / 2,981 m 96.33° 90.80° Asphalt 0 ft / 0 m 0 ft / 0 m
27 98 ft / 30 m 9,780 ft / 2,981 m 276.35° 270.82° Asphalt 0 ft / 0 m 0 ft / 0 m

Map

Weather


0- 5 10 15 20 25 30 35+ Temperature / ° C

Clouds and Precipitation
Forecast for 2017-12-13 18:00 UTC. Updated 3 minutes ago

Ground ~20,000 ft ~40,000 ft Winds

METAR

LTBQ 131650Z VRB01KT CAVOK 05/05 Q1019 NOSIG

TAF

Not found

Frequencies

Ground 121.95 MHz GND
Approach 120.50 MHz YESILKOY APP
Approach 122.20 MHz YESILKOY APP
Tower 122.10 MHz TWR
Approach 121.10 MHz YESILKOY APP
Warning: Do not use this data for real-world aviation or navigation. No guarantee of current accuracy is given.